Aloha, Oregon
Current Conditions -  °F | °C
As of 2:53 AM on Friday 24 Oct 2014 (Local Time) from KHIO Reporting Station
Haze Haze  
Wind Chill: 50°   Ceiling: 4100
Heat Index: 50°   Visibility: 5mi
Dew Point: 50°   Wind: 3mph
Humidity: 100%   Direction: 340°NNW
Pressure: 30.03"   Gusts: NA
Location:  45.49°N, 122.86°W
Report Text: KHIO 240953Z AUTO 34003KT 5SM BR BKN041 10/10 A3003 RMK AO2 SLP168 T01000100 TSNO
Loading
Personal Weather Stations






























Interactive Weather Map
Tropical Storm Tracking
New forecast layout! Learn more

10-Day Weather Forecast

Advertisements
Track Severe Weather on mobile